Share

Winfield, AL (35594)

1:46 AM CDT on April 24, 2014 (GMT -0500)
MAP WINFIELD AL PSD (MWINAL) Elev 396 ft | 33.92 °N, 87.82 °W | Change Station

Current weather conditions updated 46 minutes ago

Clear
Clear
48 °F
Feels Like 48 °F
N
2
Wind Variable Wind from NNE
Gusts 0.0 mph
Sunrise 6:09 AM
Sunset 7:29 PM
Moon Waning Crescent

Today is forecast to be Warmer than yesterday. Thundershowers late tonight.

Pressure 30.03 in
Visibility 10.0 miles
Clouds Clear
Windchill 48 °F
Dew Point 42 °F
Humidity 79%
Rainfall -9999.00 in
Snow Depth Not available.
UV 0 out of 16
Pollen 8.00 out of 12
Ozone Good
PM2.5 Moderate
Flu Activity Sporadic
METAR K1M4 240556Z AUTO 00000KT 10SM CLR 07/07 A3000 RMK AO2 55003 T00720066 10200 20072 SLP169 $

More Conditions Fewer Conditions

Pressure 30.03 in
Visibility 10.0 miles
Clouds Clear
Windchill 48 °F
Dew Point 42 °F
Humidity 79%
Rainfall -9999.00 in
Snow Depth Not available.
UV 0 out of 16
Pollen 8.00 out of 12
Ozone Good
PM2.5 Moderate
Flu Activity Sporadic
METAR K1M4 240556Z AUTO 00000KT 10SM CLR 07/07 A3000 RMK AO2 55003 T00720066 10200 20072 SLP169 $

More Conditions Fewer Conditions

10-Day Weather Forecast

Almanac

Astronomy

Apr. 24, 2014 Rise Set
Actual Time 6:09 AM CDT 7:29 PM CDT
Civil Twilight 5:43 AM CDT 7:55 PM CDT
Nautical Twilight 5:12 AM CDT 8:27 PM CDT
Astronomical Twilight 4:39 AM CDT 8:59 PM CDT
Moon 3:06 AM CDT 2:57 PM CDT
Length of Visible Light 14h 12m
Length of Day
13h 19m
Tomorrow will be 1m 53s longer.
Waning Crescent, 28% of the Moon is Illuminated
Today
Waning Crescent
Apr 29
New
May 6
First Quarter
May 14
Full
May 21
Last Quarter

Today's Extremes

State Highs State Lows

Community

  • Stacked
    Stacked
  • clouds approaching Red Sox Nation
    clouds approaching Red Sox Nation
  • Balance
    Balance
  • Nestled In
    Nestled In
  • Stunning Sunrise
    Stunning Sunrise

WunderPhotos

Upload Photos

1,704,569 photos uploaded!

WunderBlogs® & News

Nearby

Air Quality

  Air Quality AQ Index Pollutant
Yesterday Good
PM10
Yesterday Good
OZONE
Current Moderate
PM2.5
Current Good
OZONE
Wednesday Moderate
PM2.5
Wednesday Good
OZONE
Thursday Moderate
PM2.5
Thursday Moderate
OZONE

Snow Depth

Station Depth Elevation
No new snow has been reported.

Coastal Water Temperatures

Place Temperature
No Stations Reporting

Earthquake Activity

City Distance Mag. Time & Date
No recent earthquake activity has been reported nearby.
Minimum magnitude displayed is 2.5.

Nearby Weather Stations

Station Location Temp. Windchill Dew Point Humidity Wind Precip. Elev Updated Type
MAP WINFIELD AL , Winfield, AL 48 °F 48 °F 42 °F 79% NNE  at  2 mph 0.00 in / hr 396 ft 1:00 AM CDT MADIS
Boogertree Community, Double Springs, AL 44.4 °F 44 °F 41 °F 89% NW  at  0.0 mph - / hr 784 ft 1:31 AM CDT Normal

Show More Stations Show Fewer Stations

What do you think?

We're not finished. Please let us know what you like, what you don't like, and what you are still missing.